sensor_id;sensor_type;location;lat;lon;timestamp;pressure;altitude;pressure_sealevel;temperature;humidity
69796;BME280;57073;45.650;9.612;2024-03-17T00:03:32;99754.47;;;12.05;59.15
69796;BME280;57073;45.650;9.612;2024-03-17T00:08:33;99767.53;;;12.08;60.67
69796;BME280;57073;45.650;9.612;2024-03-17T00:13:33;99764.22;;;12.06;60.89
69796;BME280;57073;45.650;9.612;2024-03-17T00:18:33;99764.13;;;12.13;60.36
69796;BME280;57073;45.650;9.612;2024-03-17T00:23:34;99769.16;;;12.09;60.15
69796;BME280;57073;45.650;9.612;2024-03-17T00:28:34;99778.34;;;11.97;61.49
69796;BME280;57073;45.650;9.612;2024-03-17T00:33:35;99768.34;;;11.85;61.12
69796;BME280;57073;45.650;9.612;2024-03-17T00:38:35;99763.97;;;11.84;62.38
69796;BME280;57073;45.650;9.612;2024-03-17T00:43:36;99759.53;;;11.90;61.81
69796;BME280;57073;45.650;9.612;2024-03-17T00:48:37;99763.63;;;11.81;61.48
69796;BME280;57073;45.650;9.612;2024-03-17T00:53:38;99769.03;;;11.81;61.44
69796;BME280;57073;45.650;9.612;2024-03-17T00:58:38;99770.91;;;11.80;61.02
69796;BME280;57073;45.650;9.612;2024-03-17T01:03:38;99765.25;;;11.58;60.52
69796;BME280;57073;45.650;9.612;2024-03-17T01:08:39;99772.88;;;11.61;60.32
69796;BME280;57073;45.650;9.612;2024-03-17T01:13:39;99755.09;;;11.53;60.95
69796;BME280;57073;45.650;9.612;2024-03-17T01:18:41;99765.44;;;11.56;60.85
69796;BME280;57073;45.650;9.612;2024-03-17T01:23:43;99752.03;;;11.50;60.29
69796;BME280;57073;45.650;9.612;2024-03-17T01:28:43;99756.72;;;11.43;60.32
69796;BME280;57073;45.650;9.612;2024-03-17T01:33:44;99749.81;;;11.47;59.73
69796;BME280;57073;45.650;9.612;2024-03-17T01:38:44;99748.97;;;11.46;59.71
69796;BME280;57073;45.650;9.612;2024-03-17T01:43:44;99738.03;;;11.41;60.08
69796;BME280;57073;45.650;9.612;2024-03-17T01:48:45;99730.19;;;11.40;58.98
69796;BME280;57073;45.650;9.612;2024-03-17T01:53:46;99730.56;;;11.43;59.31
69796;BME280;57073;45.650;9.612;2024-03-17T01:58:47;99731.91;;;11.22;58.82
69796;BME280;57073;45.650;9.612;2024-03-17T02:03:47;99729.50;;;11.14;60.19
69796;BME280;57073;45.650;9.612;2024-03-17T02:13:48;99728.16;;;11.23;59.11
69796;BME280;57073;45.650;9.612;2024-03-17T02:18:56;99716.75;;;11.21;58.96
69796;BME280;57073;45.650;9.612;2024-03-17T02:23:57;99717.44;;;11.16;58.73
69796;BME280;57073;45.650;9.612;2024-03-17T02:28:57;99723.00;;;11.22;59.75
69796;BME280;57073;45.650;9.612;2024-03-17T02:33:58;99726.59;;;11.15;59.21
69796;BME280;57073;45.650;9.612;2024-03-17T02:38:58;99724.81;;;11.09;59.97
69796;BME280;57073;45.650;9.612;2024-03-17T02:44:17;99723.72;;;10.98;59.08
69796;BME280;57073;45.650;9.612;2024-03-17T02:49:17;99729.56;;;10.95;58.42
69796;BME280;57073;45.650;9.612;2024-03-17T02:54:18;99718.22;;;10.75;58.72
69796;BME280;57073;45.650;9.612;2024-03-17T02:59:18;99707.94;;;10.84;58.05
69796;BME280;57073;45.650;9.612;2024-03-17T03:04:18;99697.31;;;10.89;58.40
69796;BME280;57073;45.650;9.612;2024-03-17T03:09:19;99697.41;;;10.94;57.73
69796;BME280;57073;45.650;9.612;2024-03-17T03:14:31;99711.25;;;10.86;58.09
69796;BME280;57073;45.650;9.612;2024-03-17T03:19:32;99716.28;;;10.82;57.78
69796;BME280;57073;45.650;9.612;2024-03-17T03:24:32;99715.81;;;10.85;57.71
69796;BME280;57073;45.650;9.612;2024-03-17T03:29:32;99717.16;;;10.76;56.98
69796;BME280;57073;45.650;9.612;2024-03-17T03:34:33;99702.63;;;10.77;57.17
69796;BME280;57073;45.650;9.612;2024-03-17T03:39:33;99705.47;;;10.82;57.79
69796;BME280;57073;45.650;9.612;2024-03-17T03:44:36;99705.78;;;10.74;56.82
69796;BME280;57073;45.650;9.612;2024-03-17T03:49:36;99699.75;;;10.60;56.87
69796;BME280;57073;45.650;9.612;2024-03-17T03:54:37;99689.84;;;10.72;57.53
69796;BME280;57073;45.650;9.612;2024-03-17T03:59:37;99695.84;;;10.74;58.63
69796;BME280;57073;45.650;9.612;2024-03-17T04:04:37;99695.00;;;10.74;58.15
69796;BME280;57073;45.650;9.612;2024-03-17T04:09:37;99701.34;;;10.79;57.11
69796;BME280;57073;45.650;9.612;2024-03-17T04:14:38;99708.00;;;10.65;58.19
69796;BME280;57073;45.650;9.612;2024-03-17T04:19:38;99707.75;;;10.67;57.76
69796;BME280;57073;45.650;9.612;2024-03-17T04:24:39;99725.59;;;10.68;57.13
69796;BME280;57073;45.650;9.612;2024-03-17T04:29:39;99729.03;;;10.56;56.79
69796;BME280;57073;45.650;9.612;2024-03-17T04:34:40;99724.91;;;10.54;56.50
69796;BME280;57073;45.650;9.612;2024-03-17T04:39:44;99728.56;;;10.59;55.53
69796;BME280;57073;45.650;9.612;2024-03-17T04:44:45;99730.09;;;10.55;55.22
69796;BME280;57073;45.650;9.612;2024-03-17T04:49:46;99735.47;;;10.37;54.00
69796;BME280;57073;45.650;9.612;2024-03-17T04:54:46;99738.22;;;10.30;54.11
69796;BME280;57073;45.650;9.612;2024-03-17T04:59:47;99747.19;;;10.31;52.12
69796;BME280;57073;45.650;9.612;2024-03-17T05:04:47;99743.97;;;10.15;52.98
69796;BME280;57073;45.650;9.612;2024-03-17T05:09:48;99746.44;;;10.17;52.32
69796;BME280;57073;45.650;9.612;2024-03-17T05:14:49;99745.38;;;10.18;50.71
69796;BME280;57073;45.650;9.612;2024-03-17T05:19:49;99740.13;;;10.04;51.28
69796;BME280;57073;45.650;9.612;2024-03-17T05:24:49;99753.59;;;10.04;51.33
69796;BME280;57073;45.650;9.612;2024-03-17T05:29:50;99759.97;;;10.10;51.45
69796;BME280;57073;45.650;9.612;2024-03-17T05:34:51;99762.69;;;10.10;51.64
69796;BME280;57073;45.650;9.612;2024-03-17T05:39:51;99763.44;;;10.17;51.84
69796;BME280;57073;45.650;9.612;2024-03-17T05:44:52;99773.84;;;10.14;51.82
69796;BME280;57073;45.650;9.612;2024-03-17T05:49:53;99772.88;;;10.27;51.76
69796;BME280;57073;45.650;9.612;2024-03-17T05:54:53;99787.91;;;10.41;52.11
69796;BME280;57073;45.650;9.612;2024-03-17T05:59:55;99786.41;;;10.45;51.33
69796;BME280;57073;45.650;9.612;2024-03-17T06:04:56;99787.16;;;10.52;50.97
69796;BME280;57073;45.650;9.612;2024-03-17T06:09:58;99783.66;;;10.27;52.53
69796;BME280;57073;45.650;9.612;2024-03-17T06:14:58;99796.31;;;10.70;52.96
69796;BME280;57073;45.650;9.612;2024-03-17T06:20:00;99795.69;;;10.86;52.72
69796;BME280;57073;45.650;9.612;2024-03-17T06:25:02;99790.06;;;10.88;53.19
69796;BME280;57073;45.650;9.612;2024-03-17T06:30:05;99801.91;;;11.05;52.50
69796;BME280;57073;45.650;9.612;2024-03-17T06:35:07;99788.66;;;11.15;52.53
69796;BME280;57073;45.650;9.612;2024-03-17T06:40:13;99805.66;;;11.34;51.76
69796;BME280;57073;45.650;9.612;2024-03-17T06:45:14;99804.88;;;11.76;51.25
69796;BME280;57073;45.650;9.612;2024-03-17T06:50:17;99810.31;;;12.00;49.38
69796;BME280;57073;45.650;9.612;2024-03-17T06:55:18;99810.31;;;12.35;49.47
69796;BME280;57073;45.650;9.612;2024-03-17T07:00:21;99806.19;;;12.44;49.01
69796;BME280;57073;45.650;9.612;2024-03-17T07:05:25;99805.00;;;12.52;48.83
69796;BME280;57073;45.650;9.612;2024-03-17T07:10:25;99820.41;;;12.75;48.97
69796;BME280;57073;45.650;9.612;2024-03-17T07:15:26;99816.94;;;13.03;47.63
69796;BME280;57073;45.650;9.612;2024-03-17T07:20:27;99827.44;;;13.28;47.05
69796;BME280;57073;45.650;9.612;2024-03-17T07:25:27;99830.97;;;13.75;46.99
69796;BME280;57073;45.650;9.612;2024-03-17T07:30:27;99823.38;;;14.05;45.86
69796;BME280;57073;45.650;9.612;2024-03-17T07:35:27;99834.88;;;14.47;45.55
69796;BME280;57073;45.650;9.612;2024-03-17T07:40:28;99832.97;;;14.47;45.02
69796;BME280;57073;45.650;9.612;2024-03-17T07:45:28;99840.81;;;14.66;44.94
69796;BME280;57073;45.650;9.612;2024-03-17T07:50:29;99840.38;;;14.91;44.88
69796;BME280;57073;45.650;9.612;2024-03-17T07:55:29;99838.84;;;15.00;44.75
69796;BME280;57073;45.650;9.612;2024-03-17T08:00:31;99835.94;;;15.29;44.72
69796;BME280;57073;45.650;9.612;2024-03-17T08:05:31;99822.09;;;15.30;44.16
69796;BME280;57073;45.650;9.612;2024-03-17T08:10:31;99829.38;;;15.79;44.46
69796;BME280;57073;45.650;9.612;2024-03-17T08:15:32;99840.38;;;15.89;42.49
69796;BME280;57073;45.650;9.612;2024-03-17T08:20:32;99839.09;;;16.34;44.57
69796;BME280;57073;45.650;9.612;2024-03-17T08:25:36;99836.81;;;16.64;43.31
69796;BME280;57073;45.650;9.612;2024-03-17T08:30:36;99842.41;;;16.84;42.64
69796;BME280;57073;45.650;9.612;2024-03-17T08:35:37;99838.19;;;16.66;42.40
69796;BME280;57073;45.650;9.612;2024-03-17T08:40:37;99843.28;;;17.00;43.68
69796;BME280;57073;45.650;9.612;2024-03-17T08:45:37;99845.31;;;17.30;44.24
69796;BME280;57073;45.650;9.612;2024-03-17T08:50:38;99832.25;;;17.48;43.83
69796;BME280;57073;45.650;9.612;2024-03-17T08:55:39;99831.97;;;17.39;43.37
69796;BME280;57073;45.650;9.612;2024-03-17T09:00:40;99841.00;;;17.55;43.12
69796;BME280;57073;45.650;9.612;2024-03-17T09:05:44;99846.53;;;17.71;43.39
69796;BME280;57073;45.650;9.612;2024-03-17T09:10:48;99840.22;;;17.70;41.76
69796;BME280;57073;45.650;9.612;2024-03-17T09:16:01;99841.38;;;18.05;42.73
69796;BME280;57073;45.650;9.612;2024-03-17T09:21:06;99853.38;;;18.14;43.29
69796;BME280;57073;45.650;9.612;2024-03-17T09:26:10;99841.31;;;17.79;41.79
69796;BME280;57073;45.650;9.612;2024-03-17T09:31:17;99854.19;;;18.15;43.13
69796;BME280;57073;45.650;9.612;2024-03-17T09:36:18;99837.50;;;18.37;43.05
69796;BME280;57073;45.650;9.612;2024-03-17T09:41:23;99833.69;;;18.17;41.71
69796;BME280;57073;45.650;9.612;2024-03-17T09:46:29;99837.00;;;18.09;43.15
69796;BME280;57073;45.650;9.612;2024-03-17T09:51:29;99826.06;;;17.99;42.16
69796;BME280;57073;45.650;9.612;2024-03-17T09:56:31;99827.19;;;18.03;42.95
69796;BME280;57073;45.650;9.612;2024-03-17T10:01:31;99829.78;;;17.46;42.84
69796;BME280;57073;45.650;9.612;2024-03-17T10:06:31;99827.69;;;17.84;42.44
69796;BME280;57073;45.650;9.612;2024-03-17T10:11:35;99817.63;;;17.80;42.24
69796;BME280;57073;45.650;9.612;2024-03-17T10:16:37;99818.97;;;17.67;43.22
69796;BME280;57073;45.650;9.612;2024-03-17T10:21:47;99812.44;;;17.83;43.93
69796;BME280;57073;45.650;9.612;2024-03-17T10:26:51;99811.00;;;17.40;44.91
69796;BME280;57073;45.650;9.612;2024-03-17T10:32:02;99813.47;;;17.57;45.62
69796;BME280;57073;45.650;9.612;2024-03-17T10:37:11;99801.75;;;17.51;44.41
69796;BME280;57073;45.650;9.612;2024-03-17T10:42:14;99805.47;;;17.09;45.39
69796;BME280;57073;45.650;9.612;2024-03-17T10:47:21;99795.34;;;17.04;45.77
69796;BME280;57073;45.650;9.612;2024-03-17T10:52:23;99790.38;;;16.86;46.48
69796;BME280;57073;45.650;9.612;2024-03-17T11:02:33;99778.97;;;16.99;47.34
69796;BME280;57073;45.650;9.612;2024-03-17T11:07:35;99774.88;;;16.91;47.92
69796;BME280;57073;45.650;9.612;2024-03-17T11:12:44;99777.84;;;16.80;47.78
69796;BME280;57073;45.650;9.612;2024-03-17T11:17:45;99782.28;;;17.06;47.68
69796;BME280;57073;45.650;9.612;2024-03-17T11:22:49;99785.00;;;17.06;48.00
69796;BME280;57073;45.650;9.612;2024-03-17T11:27:50;99786.47;;;16.71;48.29
69796;BME280;57073;45.650;9.612;2024-03-17T11:32:50;99784.50;;;17.15;47.95
69796;BME280;57073;45.650;9.612;2024-03-17T11:37:50;99776.06;;;17.26;48.32
69796;BME280;57073;45.650;9.612;2024-03-17T11:43:02;99778.53;;;17.28;48.03
69796;BME280;57073;45.650;9.612;2024-03-17T11:48:12;99768.16;;;17.30;47.61
69796;BME280;57073;45.650;9.612;2024-03-17T11:53:14;99765.75;;;17.49;47.24
69796;BME280;57073;45.650;9.612;2024-03-17T11:58:14;99766.63;;;17.65;47.10
69796;BME280;57073;45.650;9.612;2024-03-17T12:03:17;99758.41;;;17.70;46.71
69796;BME280;57073;45.650;9.612;2024-03-17T12:08:20;99748.06;;;17.62;46.80
69796;BME280;57073;45.650;9.612;2024-03-17T12:13:20;99732.25;;;17.74;46.89
69796;BME280;57073;45.650;9.612;2024-03-17T12:18:21;99724.88;;;17.70;46.66
69796;BME280;57073;45.650;9.612;2024-03-17T12:23:21;99725.94;;;17.79;45.88
69796;BME280;57073;45.650;9.612;2024-03-17T12:28:23;99716.38;;;18.02;46.09
69796;BME280;57073;45.650;9.612;2024-03-17T12:33:23;99703.81;;;18.11;46.13
69796;BME280;57073;45.650;9.612;2024-03-17T12:38:24;99690.69;;;18.18;45.69
69796;BME280;57073;45.650;9.612;2024-03-17T12:43:24;99681.63;;;18.28;45.94
69796;BME280;57073;45.650;9.612;2024-03-17T12:48:26;99674.53;;;18.32;45.40
69796;BME280;57073;45.650;9.612;2024-03-17T12:53:26;99665.56;;;18.27;45.61
69796;BME280;57073;45.650;9.612;2024-03-17T12:58:27;99667.16;;;18.38;45.68
69796;BME280;57073;45.650;9.612;2024-03-17T13:03:45;99667.19;;;18.28;45.01
69796;BME280;57073;45.650;9.612;2024-03-17T13:08:46;99664.47;;;18.17;44.77
69796;BME280;57073;45.650;9.612;2024-03-17T13:13:46;99665.56;;;18.27;44.50
69796;BME280;57073;45.650;9.612;2024-03-17T13:18:47;99658.44;;;18.31;44.84
69796;BME280;57073;45.650;9.612;2024-03-17T13:23:47;99660.63;;;18.29;44.43
69796;BME280;57073;45.650;9.612;2024-03-17T13:28:50;99665.50;;;18.37;44.96
69796;BME280;57073;45.650;9.612;2024-03-17T13:33:50;99652.69;;;18.32;44.83
69796;BME280;57073;45.650;9.612;2024-03-17T13:38:52;99648.34;;;18.26;44.84
69796;BME280;57073;45.650;9.612;2024-03-17T13:43:53;99646.72;;;18.25;44.94
69796;BME280;57073;45.650;9.612;2024-03-17T13:48:57;99636.63;;;18.20;44.07
69796;BME280;57073;45.650;9.612;2024-03-17T13:54:07;99623.28;;;18.14;44.95
69796;BME280;57073;45.650;9.612;2024-03-17T13:59:08;99614.00;;;18.15;43.98
69796;BME280;57073;45.650;9.612;2024-03-17T14:04:13;99599.31;;;18.05;44.00
69796;BME280;57073;45.650;9.612;2024-03-17T14:09:17;99604.25;;;18.03;45.00
69796;BME280;57073;45.650;9.612;2024-03-17T14:14:21;99606.97;;;18.03;44.92
69796;BME280;57073;45.650;9.612;2024-03-17T14:19:21;99599.94;;;17.87;44.40
69796;BME280;57073;45.650;9.612;2024-03-17T14:24:22;99595.28;;;17.93;44.52
69796;BME280;57073;45.650;9.612;2024-03-17T14:29:22;99580.06;;;17.76;44.31
69796;BME280;57073;45.650;9.612;2024-03-17T14:34:22;99598.25;;;17.96;45.12
69796;BME280;57073;45.650;9.612;2024-03-17T14:39:23;99594.75;;;17.91;43.68
69796;BME280;57073;45.650;9.612;2024-03-17T14:44:24;99595.28;;;17.82;44.88
69796;BME280;57073;45.650;9.612;2024-03-17T14:49:24;99588.69;;;17.94;44.16
69796;BME280;57073;45.650;9.612;2024-03-17T14:54:25;99585.44;;;17.92;44.12
69796;BME280;57073;45.650;9.612;2024-03-17T14:59:25;99580.00;;;17.86;44.58
69796;BME280;57073;45.650;9.612;2024-03-17T15:04:26;99577.31;;;17.81;44.77
69796;BME280;57073;45.650;9.612;2024-03-17T15:09:27;99574.59;;;17.76;45.24
69796;BME280;57073;45.650;9.612;2024-03-17T15:14:27;99560.97;;;17.76;44.54
69796;BME280;57073;45.650;9.612;2024-03-17T15:19:27;99565.34;;;17.72;44.89
69796;BME280;57073;45.650;9.612;2024-03-17T15:24:28;99558.00;;;17.62;45.10
69796;BME280;57073;45.650;9.612;2024-03-17T15:29:29;99556.09;;;17.53;44.97
69796;BME280;57073;45.650;9.612;2024-03-17T15:34:30;99558.84;;;17.37;45.63
69796;BME280;57073;45.650;9.612;2024-03-17T15:39:33;99559.94;;;17.41;45.58
69796;BME280;57073;45.650;9.612;2024-03-17T15:44:33;99562.94;;;17.35;45.59
69796;BME280;57073;45.650;9.612;2024-03-17T15:49:34;99557.75;;;17.23;45.76
69796;BME280;57073;45.650;9.612;2024-03-17T15:54:34;99562.94;;;17.29;46.10
69796;BME280;57073;45.650;9.612;2024-03-17T15:59:35;99565.94;;;17.23;46.06
69796;BME280;57073;45.650;9.612;2024-03-17T16:04:35;99562.41;;;17.27;46.20
69796;BME280;57073;45.650;9.612;2024-03-17T16:09:35;99551.25;;;17.24;45.87
69796;BME280;57073;45.650;9.612;2024-03-17T16:14:36;99545.78;;;17.24;46.06
69796;BME280;57073;45.650;9.612;2024-03-17T16:19:39;99547.13;;;17.21;46.61
69796;BME280;57073;45.650;9.612;2024-03-17T16:24:42;99553.16;;;17.13;46.79
69796;BME280;57073;45.650;9.612;2024-03-17T16:29:43;99537.38;;;16.89;47.36
69796;BME280;57073;45.650;9.612;2024-03-17T16:34:43;99536.28;;;16.85;48.20
69796;BME280;57073;45.650;9.612;2024-03-17T16:39:44;99546.38;;;16.80;48.32
69796;BME280;57073;45.650;9.612;2024-03-17T16:44:57;99549.56;;;16.51;49.33
69796;BME280;57073;45.650;9.612;2024-03-17T16:50:02;99541.94;;;16.53;48.84
69796;BME280;57073;45.650;9.612;2024-03-17T16:55:06;99540.28;;;16.47;48.74
69796;BME280;57073;45.650;9.612;2024-03-17T17:00:07;99536.50;;;16.48;49.70
69796;BME280;57073;45.650;9.612;2024-03-17T17:05:13;99534.31;;;16.50;48.61
69796;BME280;57073;45.650;9.612;2024-03-17T17:10:14;99535.41;;;16.44;49.13
69796;BME280;57073;45.650;9.612;2024-03-17T17:15:18;99524.81;;;16.47;49.05
69796;BME280;57073;45.650;9.612;2024-03-17T17:20:18;99516.63;;;16.42;49.86
69796;BME280;57073;45.650;9.612;2024-03-17T17:25:18;99528.56;;;16.36;50.56
69796;BME280;57073;45.650;9.612;2024-03-17T17:30:19;99532.63;;;16.23;50.15
69796;BME280;57073;45.650;9.612;2024-03-17T17:35:20;99537.50;;;16.11;50.08
69796;BME280;57073;45.650;9.612;2024-03-17T17:40:20;99540.75;;;16.08;49.90
69796;BME280;57073;45.650;9.612;2024-03-17T17:45:21;99529.25;;;15.90;50.31
69796;BME280;57073;45.650;9.612;2024-03-17T17:50:21;99523.81;;;15.85;51.07
69796;BME280;57073;45.650;9.612;2024-03-17T17:55:23;99523.97;;;15.68;51.06
69796;BME280;57073;45.650;9.612;2024-03-17T18:00:24;99546.81;;;15.62;51.72
69796;BME280;57073;45.650;9.612;2024-03-17T18:05:25;99529.91;;;15.55;51.72
69796;BME280;57073;45.650;9.612;2024-03-17T18:10:28;99544.31;;;15.55;51.63
69796;BME280;57073;45.650;9.612;2024-03-17T18:15:30;99545.88;;;15.46;52.72
69796;BME280;57073;45.650;9.612;2024-03-17T18:20:31;99540.91;;;15.28;53.07
69796;BME280;57073;45.650;9.612;2024-03-17T18:25:32;99541.91;;;15.22;53.92
69796;BME280;57073;45.650;9.612;2024-03-17T18:30:33;99558.25;;;15.27;53.09
69796;BME280;57073;45.650;9.612;2024-03-17T18:35:34;99551.09;;;15.10;53.75
69796;BME280;57073;45.650;9.612;2024-03-17T18:40:35;99557.28;;;15.00;53.91
69796;BME280;57073;45.650;9.612;2024-03-17T18:45:36;99554.75;;;14.94;54.39
69796;BME280;57073;45.650;9.612;2024-03-17T18:50:37;99552.31;;;14.92;54.32
69796;BME280;57073;45.650;9.612;2024-03-17T18:55:37;99550.19;;;14.99;53.91
69796;BME280;57073;45.650;9.612;2024-03-17T19:00:38;99543.59;;;14.90;54.11
69796;BME280;57073;45.650;9.612;2024-03-17T19:05:41;99557.94;;;14.86;54.14
69796;BME280;57073;45.650;9.612;2024-03-17T19:10:53;99572.09;;;14.60;55.67
69796;BME280;57073;45.650;9.612;2024-03-17T19:16:02;99575.50;;;14.51;55.70
69796;BME280;57073;45.650;9.612;2024-03-17T19:21:15;99566.69;;;14.38;56.31
69796;BME280;57073;45.650;9.612;2024-03-17T19:26:16;99567.97;;;14.31;56.66
69796;BME280;57073;45.650;9.612;2024-03-17T19:31:23;99563.63;;;14.30;56.71
69796;BME280;57073;45.650;9.612;2024-03-17T19:36:25;99561.38;;;14.21;56.54
69796;BME280;57073;45.650;9.612;2024-03-17T19:41:27;99561.06;;;14.18;56.90
69796;BME280;57073;45.650;9.612;2024-03-17T19:46:28;99552.66;;;14.19;56.79
69796;BME280;57073;45.650;9.612;2024-03-17T19:51:28;99563.63;;;14.08;57.15
69796;BME280;57073;45.650;9.612;2024-03-17T19:56:30;99561.22;;;14.06;57.51
69796;BME280;57073;45.650;9.612;2024-03-17T20:01:31;99564.91;;;14.00;58.00
69796;BME280;57073;45.650;9.612;2024-03-17T20:06:31;99562.84;;;13.85;58.21
69796;BME280;57073;45.650;9.612;2024-03-17T20:11:33;99556.75;;;13.78;57.81
69796;BME280;57073;45.650;9.612;2024-03-17T20:16:33;99561.69;;;13.81;58.11
69796;BME280;57073;45.650;9.612;2024-03-17T20:21:40;99554.47;;;13.70;58.04
69796;BME280;57073;45.650;9.612;2024-03-17T20:26:41;99542.56;;;13.71;58.06
69796;BME280;57073;45.650;9.612;2024-03-17T20:31:43;99525.91;;;13.62;58.59
69796;BME280;57073;45.650;9.612;2024-03-17T20:36:43;99542.41;;;13.60;58.64
69796;BME280;57073;45.650;9.612;2024-03-17T20:41:43;99546.00;;;13.44;58.87
69796;BME280;57073;45.650;9.612;2024-03-17T20:46:44;99543.72;;;13.36;59.49
69796;BME280;57073;45.650;9.612;2024-03-17T20:51:45;99545.03;;;13.33;59.38
69796;BME280;57073;45.650;9.612;2024-03-17T20:56:45;99545.34;;;13.37;59.16
69796;BME280;57073;45.650;9.612;2024-03-17T21:01:47;99551.28;;;13.34;58.77
69796;BME280;57073;45.650;9.612;2024-03-17T21:06:48;99543.56;;;13.25;59.06
69796;BME280;57073;45.650;9.612;2024-03-17T21:11:49;99529.53;;;13.12;59.05
69796;BME280;57073;45.650;9.612;2024-03-17T21:16:51;99527.47;;;13.19;58.73
69796;BME280;57073;45.650;9.612;2024-03-17T21:21:52;99524.88;;;13.07;58.65
69796;BME280;57073;45.650;9.612;2024-03-17T21:26:52;99524.72;;;13.14;58.50
69796;BME280;57073;45.650;9.612;2024-03-17T21:31:52;99520.47;;;13.01;58.67
69796;BME280;57073;45.650;9.612;2024-03-17T21:36:54;99513.66;;;12.98;58.93
69796;BME280;57073;45.650;9.612;2024-03-17T21:41:55;99502.50;;;12.95;59.15
69796;BME280;57073;45.650;9.612;2024-03-17T21:46:55;99498.25;;;12.82;58.86
69796;BME280;57073;45.650;9.612;2024-03-17T21:51:57;99509.72;;;12.72;59.31
69796;BME280;57073;45.650;9.612;2024-03-17T21:56:57;99507.59;;;12.74;60.06
69796;BME280;57073;45.650;9.612;2024-03-17T22:01:57;99507.25;;;12.87;58.94
69796;BME280;57073;45.650;9.612;2024-03-17T22:06:58;99496.19;;;12.89;59.03
69796;BME280;57073;45.650;9.612;2024-03-17T22:11:58;99489.66;;;12.85;59.25
69796;BME280;57073;45.650;9.612;2024-03-17T22:16:59;99488.31;;;12.70;59.45
69796;BME280;57073;45.650;9.612;2024-03-17T22:21:59;99471.09;;;12.60;60.26
69796;BME280;57073;45.650;9.612;2024-03-17T22:27:00;99476.16;;;12.73;58.63
69796;BME280;57073;45.650;9.612;2024-03-17T22:32:02;99476.00;;;12.63;59.22
69796;BME280;57073;45.650;9.612;2024-03-17T22:37:04;99471.66;;;12.62;59.75
69796;BME280;57073;45.650;9.612;2024-03-17T22:42:05;99482.00;;;12.65;59.64
69796;BME280;57073;45.650;9.612;2024-03-17T22:47:05;99480.81;;;12.61;58.71
69796;BME280;57073;45.650;9.612;2024-03-17T22:52:06;99473.34;;;12.68;58.42
69796;BME280;57073;45.650;9.612;2024-03-17T22:57:07;99467.25;;;12.56;58.73
69796;BME280;57073;45.650;9.612;2024-03-17T23:02:07;99459.84;;;12.51;57.63
69796;BME280;57073;45.650;9.612;2024-03-17T23:07:08;99464.41;;;12.33;58.25
69796;BME280;57073;45.650;9.612;2024-03-17T23:12:08;99461.88;;;12.27;58.16
69796;BME280;57073;45.650;9.612;2024-03-17T23:17:10;99455.13;;;12.12;58.95
69796;BME280;57073;45.650;9.612;2024-03-17T23:22:11;99449.72;;;12.12;59.66
69796;BME280;57073;45.650;9.612;2024-03-17T23:27:12;99433.50;;;12.12;59.58
69796;BME280;57073;45.650;9.612;2024-03-17T23:32:12;99418.44;;;12.17;60.05
69796;BME280;57073;45.650;9.612;2024-03-17T23:37:12;99423.53;;;12.30;59.54
69796;BME280;57073;45.650;9.612;2024-03-17T23:42:13;99423.69;;;12.40;59.97
69796;BME280;57073;45.650;9.612;2024-03-17T23:47:14;99422.47;;;12.31;59.99
69796;BME280;57073;45.650;9.612;2024-03-17T23:52:14;99427.16;;;12.36;59.40
69796;BME280;57073;45.650;9.612;2024-03-17T23:57:15;99416.66;;;12.39;60.17
